sensor_id;sensor_type;location;lat;lon;timestamp;P1;durP1;ratioP1;P2;durP2;ratioP2
61644;SDS011;47553;52.428;13.382;2022-10-17T00:01:31;7.93;;;3.88;;
61644;SDS011;47553;52.428;13.382;2022-10-17T00:03:33;6.93;;;3.88;;
61644;SDS011;47553;52.428;13.382;2022-10-17T00:05:38;8.05;;;4.10;;
61644;SDS011;47553;52.428;13.382;2022-10-17T00:07:40;8.23;;;3.95;;
61644;SDS011;47553;52.428;13.382;2022-10-17T00:09:42;8.15;;;4.03;;
61644;SDS011;47553;52.428;13.382;2022-10-17T00:11:44;8.73;;;4.10;;
61644;SDS011;47553;52.428;13.382;2022-10-17T00:13:48;8.75;;;4.50;;
61644;SDS011;47553;52.428;13.382;2022-10-17T00:15:51;9.60;;;4.13;;
61644;SDS011;47553;52.428;13.382;2022-10-17T00:17:52;8.95;;;4.75;;
61644;SDS011;47553;52.428;13.382;2022-10-17T00:19:54;8.93;;;4.32;;
61644;SDS011;47553;52.428;13.382;2022-10-17T00:21:58;9.68;;;5.22;;
61644;SDS011;47553;52.428;13.382;2022-10-17T00:24:00;11.40;;;5.30;;
61644;SDS011;47553;52.428;13.382;2022-10-17T00:26:03;12.27;;;5.32;;
61644;SDS011;47553;52.428;13.382;2022-10-17T00:28:09;10.75;;;5.05;;
61644;SDS011;47553;52.428;13.382;2022-10-17T00:30:13;10.57;;;5.30;;
61644;SDS011;47553;52.428;13.382;2022-10-17T00:32:15;9.23;;;5.07;;
61644;SDS011;47553;52.428;13.382;2022-10-17T00:34:17;10.88;;;5.38;;
61644;SDS011;47553;52.428;13.382;2022-10-17T00:36:20;11.43;;;5.28;;
61644;SDS011;47553;52.428;13.382;2022-10-17T00:38:23;9.82;;;4.72;;
61644;SDS011;47553;52.428;13.382;2022-10-17T00:40:24;10.98;;;4.82;;
61644;SDS011;47553;52.428;13.382;2022-10-17T00:42:26;8.27;;;4.88;;
61644;SDS011;47553;52.428;13.382;2022-10-17T00:47:12;8.75;;;4.90;;
61644;SDS011;47553;52.428;13.382;2022-10-17T00:49:16;9.55;;;5.07;;
61644;SDS011;47553;52.428;13.382;2022-10-17T00:51:18;10.40;;;5.10;;
61644;SDS011;47553;52.428;13.382;2022-10-17T00:53:25;10.82;;;5.30;;
61644;SDS011;47553;52.428;13.382;2022-10-17T00:55:28;9.88;;;5.18;;
61644;SDS011;47553;52.428;13.382;2022-10-17T00:57:33;8.73;;;4.93;;
61644;SDS011;47553;52.428;13.382;2022-10-17T00:59:35;9.45;;;5.25;;
61644;SDS011;47553;52.428;13.382;2022-10-17T01:01:40;8.65;;;5.13;;
61644;SDS011;47553;52.428;13.382;2022-10-17T01:03:48;9.52;;;5.10;;
61644;SDS011;47553;52.428;13.382;2022-10-17T01:05:50;10.52;;;5.20;;
61644;SDS011;47553;52.428;13.382;2022-10-17T01:07:52;9.77;;;5.18;;
61644;SDS011;47553;52.428;13.382;2022-10-17T01:09:54;9.32;;;4.80;;
61644;SDS011;47553;52.428;13.382;2022-10-17T01:11:58;9.50;;;4.80;;
61644;SDS011;47553;52.428;13.382;2022-10-17T01:14:08;11.45;;;5.28;;
61644;SDS011;47553;52.428;13.382;2022-10-17T01:16:17;11.18;;;5.22;;
61644;SDS011;47553;52.428;13.382;2022-10-17T01:18:27;9.25;;;4.90;;
61644;SDS011;47553;52.428;13.382;2022-10-17T01:20:45;10.93;;;5.00;;
61644;SDS011;47553;52.428;13.382;2022-10-17T01:23:26;10.07;;;5.20;;
61644;SDS011;47553;52.428;13.382;2022-10-17T01:25:40;10.02;;;5.13;;
61644;SDS011;47553;52.428;13.382;2022-10-17T01:27:58;11.63;;;5.43;;
61644;SDS011;47553;52.428;13.382;2022-10-17T01:32:52;11.05;;;4.90;;
61644;SDS011;47553;52.428;13.382;2022-10-17T01:34:58;14.63;;;5.05;;
61644;SDS011;47553;52.428;13.382;2022-10-17T01:37:12;8.98;;;4.18;;
61644;SDS011;47553;52.428;13.382;2022-10-17T01:39:22;8.57;;;4.63;;
61644;SDS011;47553;52.428;13.382;2022-10-17T01:41:34;8.13;;;4.20;;
61644;SDS011;47553;52.428;13.382;2022-10-17T01:43:43;9.05;;;4.57;;
61644;SDS011;47553;52.428;13.382;2022-10-17T01:45:52;8.43;;;4.18;;
61644;SDS011;47553;52.428;13.382;2022-10-17T01:48:02;8.00;;;4.30;;
61644;SDS011;47553;52.428;13.382;2022-10-17T01:50:09;8.30;;;4.47;;
61644;SDS011;47553;52.428;13.382;2022-10-17T01:52:17;7.45;;;4.40;;
61644;SDS011;47553;52.428;13.382;2022-10-17T01:54:22;9.05;;;4.25;;
61644;SDS011;47553;52.428;13.382;2022-10-17T01:56:28;7.72;;;4.40;;
61644;SDS011;47553;52.428;13.382;2022-10-17T01:58:33;7.32;;;4.45;;
61644;SDS011;47553;52.428;13.382;2022-10-17T02:00:38;8.70;;;4.53;;
61644;SDS011;47553;52.428;13.382;2022-10-17T02:02:45;8.10;;;4.18;;
61644;SDS011;47553;52.428;13.382;2022-10-17T02:04:56;8.68;;;4.47;;
61644;SDS011;47553;52.428;13.382;2022-10-17T02:07:04;7.43;;;4.43;;
61644;SDS011;47553;52.428;13.382;2022-10-17T02:09:18;7.30;;;3.90;;
61644;SDS011;47553;52.428;13.382;2022-10-17T02:11:22;7.32;;;4.10;;
61644;SDS011;47553;52.428;13.382;2022-10-17T02:13:28;7.72;;;4.10;;
61644;SDS011;47553;52.428;13.382;2022-10-17T02:15:50;8.57;;;4.07;;
61644;SDS011;47553;52.428;13.382;2022-10-17T02:18:13;8.05;;;4.10;;
61644;SDS011;47553;52.428;13.382;2022-10-17T02:20:24;7.72;;;4.18;;
61644;SDS011;47553;52.428;13.382;2022-10-17T02:22:34;7.43;;;4.07;;
61644;SDS011;47553;52.428;13.382;2022-10-17T02:24:43;8.55;;;4.22;;
61644;SDS011;47553;52.428;13.382;2022-10-17T02:26:51;6.78;;;3.95;;
61644;SDS011;47553;52.428;13.382;2022-10-17T02:29:05;7.82;;;4.10;;
61644;SDS011;47553;52.428;13.382;2022-10-17T02:31:12;7.68;;;4.07;;
61644;SDS011;47553;52.428;13.382;2022-10-17T02:33:17;7.95;;;4.13;;
61644;SDS011;47553;52.428;13.382;2022-10-17T02:35:25;6.80;;;3.90;;
61644;SDS011;47553;52.428;13.382;2022-10-17T02:37:31;7.28;;;3.88;;
61644;SDS011;47553;52.428;13.382;2022-10-17T02:39:34;7.60;;;4.30;;
61644;SDS011;47553;52.428;13.382;2022-10-17T02:41:38;7.35;;;4.05;;
61644;SDS011;47553;52.428;13.382;2022-10-17T02:43:41;7.93;;;3.72;;
61644;SDS011;47553;52.428;13.382;2022-10-17T02:45:44;8.63;;;3.83;;
61644;SDS011;47553;52.428;13.382;2022-10-17T02:47:49;8.25;;;3.78;;
61644;SDS011;47553;52.428;13.382;2022-10-17T02:49:56;7.47;;;3.72;;
61644;SDS011;47553;52.428;13.382;2022-10-17T02:52:00;8.55;;;4.13;;
61644;SDS011;47553;52.428;13.382;2022-10-17T02:54:08;7.18;;;4.03;;
61644;SDS011;47553;52.428;13.382;2022-10-17T02:56:18;7.72;;;3.83;;
61644;SDS011;47553;52.428;13.382;2022-10-17T02:58:22;7.70;;;3.88;;
61644;SDS011;47553;52.428;13.382;2022-10-17T03:00:28;6.38;;;3.80;;
61644;SDS011;47553;52.428;13.382;2022-10-17T03:02:37;7.72;;;3.97;;
61644;SDS011;47553;52.428;13.382;2022-10-17T03:04:41;7.10;;;3.70;;
61644;SDS011;47553;52.428;13.382;2022-10-17T03:06:43;7.63;;;3.92;;
61644;SDS011;47553;52.428;13.382;2022-10-17T03:08:48;7.75;;;4.32;;
61644;SDS011;47553;52.428;13.382;2022-10-17T03:10:49;7.35;;;3.95;;
61644;SDS011;47553;52.428;13.382;2022-10-17T03:12:51;7.53;;;3.83;;
61644;SDS011;47553;52.428;13.382;2022-10-17T03:14:53;7.07;;;3.78;;
61644;SDS011;47553;52.428;13.382;2022-10-17T03:16:54;6.88;;;3.83;;
61644;SDS011;47553;52.428;13.382;2022-10-17T03:18:56;7.78;;;3.88;;
61644;SDS011;47553;52.428;13.382;2022-10-17T03:21:00;9.30;;;4.95;;
61644;SDS011;47553;52.428;13.382;2022-10-17T03:23:02;8.18;;;4.43;;
61644;SDS011;47553;52.428;13.382;2022-10-17T03:25:05;9.40;;;4.95;;
61644;SDS011;47553;52.428;13.382;2022-10-17T03:27:07;10.40;;;4.97;;
61644;SDS011;47553;52.428;13.382;2022-10-17T03:29:09;7.47;;;4.32;;
61644;SDS011;47553;52.428;13.382;2022-10-17T03:31:12;8.30;;;4.05;;
61644;SDS011;47553;52.428;13.382;2022-10-17T03:33:16;6.43;;;3.65;;
61644;SDS011;47553;52.428;13.382;2022-10-17T03:35:17;8.07;;;3.67;;
61644;SDS011;47553;52.428;13.382;2022-10-17T03:37:19;8.70;;;4.45;;
61644;SDS011;47553;52.428;13.382;2022-10-17T03:39:20;9.30;;;5.05;;
61644;SDS011;47553;52.428;13.382;2022-10-17T03:41:23;9.25;;;4.03;;
61644;SDS011;47553;52.428;13.382;2022-10-17T03:43:25;11.38;;;5.32;;
61644;SDS011;47553;52.428;13.382;2022-10-17T03:45:26;10.82;;;5.32;;
61644;SDS011;47553;52.428;13.382;2022-10-17T03:47:28;10.27;;;4.78;;
61644;SDS011;47553;52.428;13.382;2022-10-17T03:49:30;8.63;;;4.35;;
61644;SDS011;47553;52.428;13.382;2022-10-17T03:51:31;8.73;;;4.55;;
61644;SDS011;47553;52.428;13.382;2022-10-17T03:53:33;8.43;;;4.20;;
61644;SDS011;47553;52.428;13.382;2022-10-17T03:55:35;7.22;;;3.95;;
61644;SDS011;47553;52.428;13.382;2022-10-17T03:57:38;8.93;;;4.38;;
61644;SDS011;47553;52.428;13.382;2022-10-17T03:59:43;8.55;;;4.22;;
61644;SDS011;47553;52.428;13.382;2022-10-17T04:01:45;7.32;;;3.72;;
61644;SDS011;47553;52.428;13.382;2022-10-17T04:03:47;7.70;;;3.88;;
61644;SDS011;47553;52.428;13.382;2022-10-17T04:05:51;7.13;;;3.83;;
61644;SDS011;47553;52.428;13.382;2022-10-17T04:07:53;8.48;;;4.07;;
61644;SDS011;47553;52.428;13.382;2022-10-17T04:09:54;7.88;;;4.32;;
61644;SDS011;47553;52.428;13.382;2022-10-17T04:11:56;6.93;;;3.70;;
61644;SDS011;47553;52.428;13.382;2022-10-17T04:13:59;8.10;;;4.50;;
61644;SDS011;47553;52.428;13.382;2022-10-17T04:16:01;7.80;;;4.30;;
61644;SDS011;47553;52.428;13.382;2022-10-17T04:18:05;7.72;;;4.13;;
61644;SDS011;47553;52.428;13.382;2022-10-17T04:20:07;8.50;;;4.53;;
61644;SDS011;47553;52.428;13.382;2022-10-17T04:22:09;18.08;;;9.15;;
61644;SDS011;47553;52.428;13.382;2022-10-17T04:24:10;10.07;;;5.40;;
61644;SDS011;47553;52.428;13.382;2022-10-17T04:26:12;10.30;;;5.00;;
61644;SDS011;47553;52.428;13.382;2022-10-17T04:28:14;11.68;;;5.50;;
61644;SDS011;47553;52.428;13.382;2022-10-17T04:30:17;20.73;;;9.07;;
61644;SDS011;47553;52.428;13.382;2022-10-17T04:32:19;13.45;;;6.45;;
61644;SDS011;47553;52.428;13.382;2022-10-17T04:34:20;19.05;;;7.90;;
61644;SDS011;47553;52.428;13.382;2022-10-17T04:36:22;13.02;;;6.38;;
61644;SDS011;47553;52.428;13.382;2022-10-17T04:38:23;9.15;;;4.95;;
61644;SDS011;47553;52.428;13.382;2022-10-17T04:40:28;10.82;;;5.35;;
61644;SDS011;47553;52.428;13.382;2022-10-17T04:42:30;7.82;;;4.65;;
61644;SDS011;47553;52.428;13.382;2022-10-17T04:44:32;16.98;;;7.10;;
61644;SDS011;47553;52.428;13.382;2022-10-17T04:46:35;8.40;;;4.53;;
61644;SDS011;47553;52.428;13.382;2022-10-17T04:48:37;10.27;;;5.32;;
61644;SDS011;47553;52.428;13.382;2022-10-17T04:50:39;8.40;;;4.63;;
61644;SDS011;47553;52.428;13.382;2022-10-17T04:52:40;8.93;;;4.65;;
61644;SDS011;47553;52.428;13.382;2022-10-17T04:54:42;15.98;;;8.55;;
61644;SDS011;47553;52.428;13.382;2022-10-17T04:56:43;12.35;;;6.50;;
61644;SDS011;47553;52.428;13.382;2022-10-17T04:58:45;12.50;;;6.43;;
61644;SDS011;47553;52.428;13.382;2022-10-17T05:00:47;13.07;;;5.80;;
61644;SDS011;47553;52.428;13.382;2022-10-17T05:02:51;11.40;;;5.90;;
61644;SDS011;47553;52.428;13.382;2022-10-17T05:04:53;10.65;;;5.30;;
61644;SDS011;47553;52.428;13.382;2022-10-17T05:06:55;13.02;;;5.50;;
61644;SDS011;47553;52.428;13.382;2022-10-17T05:08:56;12.05;;;6.20;;
61644;SDS011;47553;52.428;13.382;2022-10-17T05:10:58;13.18;;;5.78;;
61644;SDS011;47553;52.428;13.382;2022-10-17T05:13:05;10.50;;;5.70;;
61644;SDS011;47553;52.428;13.382;2022-10-17T05:15:07;11.95;;;6.35;;
61644;SDS011;47553;52.428;13.382;2022-10-17T05:17:09;13.27;;;6.53;;
61644;SDS011;47553;52.428;13.382;2022-10-17T05:19:12;12.00;;;6.13;;
61644;SDS011;47553;52.428;13.382;2022-10-17T05:21:13;13.82;;;6.20;;
61644;SDS011;47553;52.428;13.382;2022-10-17T05:23:15;13.73;;;7.07;;
61644;SDS011;47553;52.428;13.382;2022-10-17T05:25:16;14.90;;;7.00;;
61644;SDS011;47553;52.428;13.382;2022-10-17T05:27:18;15.68;;;6.88;;
61644;SDS011;47553;52.428;13.382;2022-10-17T05:29:20;9.85;;;5.63;;
61644;SDS011;47553;52.428;13.382;2022-10-17T05:31:21;10.13;;;5.43;;
61644;SDS011;47553;52.428;13.382;2022-10-17T05:33:23;14.57;;;8.50;;
61644;SDS011;47553;52.428;13.382;2022-10-17T05:35:26;10.63;;;6.18;;
61644;SDS011;47553;52.428;13.382;2022-10-17T05:37:28;8.82;;;4.90;;
61644;SDS011;47553;52.428;13.382;2022-10-17T05:39:30;16.42;;;9.02;;
61644;SDS011;47553;52.428;13.382;2022-10-17T05:41:32;14.00;;;7.35;;
61644;SDS011;47553;52.428;13.382;2022-10-17T05:43:33;10.30;;;5.07;;
61644;SDS011;47553;52.428;13.382;2022-10-17T05:45:35;9.35;;;4.82;;
61644;SDS011;47553;52.428;13.382;2022-10-17T05:47:36;8.23;;;4.70;;
61644;SDS011;47553;52.428;13.382;2022-10-17T05:49:38;9.07;;;4.57;;
61644;SDS011;47553;52.428;13.382;2022-10-17T05:51:50;9.60;;;5.20;;
61644;SDS011;47553;52.428;13.382;2022-10-17T05:53:51;8.60;;;4.75;;
61644;SDS011;47553;52.428;13.382;2022-10-17T05:55:56;11.40;;;5.70;;
61644;SDS011;47553;52.428;13.382;2022-10-17T05:57:58;19.48;;;9.77;;
61644;SDS011;47553;52.428;13.382;2022-10-17T06:00:01;22.23;;;12.07;;
61644;SDS011;47553;52.428;13.382;2022-10-17T06:02:02;8.00;;;4.50;;
61644;SDS011;47553;52.428;13.382;2022-10-17T06:04:04;9.35;;;4.70;;
61644;SDS011;47553;52.428;13.382;2022-10-17T06:06:06;9.43;;;5.60;;
61644;SDS011;47553;52.428;13.382;2022-10-17T06:08:10;13.02;;;6.32;;
61644;SDS011;47553;52.428;13.382;2022-10-17T06:10:12;12.98;;;5.43;;
61644;SDS011;47553;52.428;13.382;2022-10-17T06:12:13;13.88;;;6.80;;
61644;SDS011;47553;52.428;13.382;2022-10-17T06:14:15;16.30;;;7.15;;
61644;SDS011;47553;52.428;13.382;2022-10-17T06:16:17;23.80;;;9.52;;
61644;SDS011;47553;52.428;13.382;2022-10-17T06:18:18;23.27;;;8.52;;
61644;SDS011;47553;52.428;13.382;2022-10-17T06:20:20;14.07;;;6.15;;
61644;SDS011;47553;52.428;13.382;2022-10-17T06:22:21;9.60;;;5.32;;
61644;SDS011;47553;52.428;13.382;2022-10-17T06:24:25;21.67;;;6.93;;
61644;SDS011;47553;52.428;13.382;2022-10-17T06:26:26;17.38;;;6.10;;
61644;SDS011;47553;52.428;13.382;2022-10-17T06:28:28;22.55;;;8.30;;
61644;SDS011;47553;52.428;13.382;2022-10-17T06:30:30;12.55;;;5.95;;
61644;SDS011;47553;52.428;13.382;2022-10-17T06:32:32;12.13;;;6.05;;
61644;SDS011;47553;52.428;13.382;2022-10-17T06:34:33;15.23;;;5.82;;
61644;SDS011;47553;52.428;13.382;2022-10-17T06:36:35;27.50;;;8.43;;
61644;SDS011;47553;52.428;13.382;2022-10-17T06:38:37;24.55;;;7.63;;
61644;SDS011;47553;52.428;13.382;2022-10-17T06:40:40;22.23;;;6.78;;
61644;SDS011;47553;52.428;13.382;2022-10-17T06:42:41;16.88;;;5.55;;
61644;SDS011;47553;52.428;13.382;2022-10-17T06:44:43;12.65;;;5.63;;
61644;SDS011;47553;52.428;13.382;2022-10-17T06:46:45;10.45;;;5.22;;
61644;SDS011;47553;52.428;13.382;2022-10-17T06:48:46;8.88;;;4.53;;
61644;SDS011;47553;52.428;13.382;2022-10-17T06:50:48;11.68;;;4.95;;
61644;SDS011;47553;52.428;13.382;2022-10-17T06:52:50;9.65;;;4.60;;
61644;SDS011;47553;52.428;13.382;2022-10-17T06:54:51;7.93;;;4.20;;
61644;SDS011;47553;52.428;13.382;2022-10-17T06:56:54;7.57;;;4.40;;
61644;SDS011;47553;52.428;13.382;2022-10-17T06:58:56;9.23;;;4.45;;
61644;SDS011;47553;52.428;13.382;2022-10-17T07:00:58;10.73;;;4.85;;
61644;SDS011;47553;52.428;13.382;2022-10-17T07:03:01;12.18;;;5.20;;
61644;SDS011;47553;52.428;13.382;2022-10-17T07:05:03;14.40;;;5.85;;
61644;SDS011;47553;52.428;13.382;2022-10-17T07:07:05;10.65;;;4.80;;
61644;SDS011;47553;52.428;13.382;2022-10-17T07:09:07;14.77;;;5.22;;
61644;SDS011;47553;52.428;13.382;2022-10-17T07:11:08;9.35;;;4.70;;
61644;SDS011;47553;52.428;13.382;2022-10-17T07:13:12;10.68;;;4.95;;
61644;SDS011;47553;52.428;13.382;2022-10-17T07:15:13;9.57;;;4.60;;
61644;SDS011;47553;52.428;13.382;2022-10-17T07:17:15;9.32;;;4.50;;
61644;SDS011;47553;52.428;13.382;2022-10-17T07:19:17;9.77;;;4.60;;
61644;SDS011;47553;52.428;13.382;2022-10-17T07:21:19;8.32;;;4.18;;
61644;SDS011;47553;52.428;13.382;2022-10-17T07:23:21;8.15;;;4.40;;
61644;SDS011;47553;52.428;13.382;2022-10-17T07:25:23;11.40;;;4.43;;
61644;SDS011;47553;52.428;13.382;2022-10-17T07:27:25;7.78;;;4.18;;
61644;SDS011;47553;52.428;13.382;2022-10-17T07:29:28;7.30;;;3.92;;
61644;SDS011;47553;52.428;13.382;2022-10-17T07:31:30;26.50;;;5.88;;
61644;SDS011;47553;52.428;13.382;2022-10-17T07:33:32;15.60;;;5.40;;
61644;SDS011;47553;52.428;13.382;2022-10-17T07:35:33;22.95;;;6.30;;
61644;SDS011;47553;52.428;13.382;2022-10-17T07:37:35;15.60;;;5.13;;
61644;SDS011;47553;52.428;13.382;2022-10-17T07:39:36;9.40;;;4.40;;
61644;SDS011;47553;52.428;13.382;2022-10-17T07:41:38;19.40;;;5.05;;
61644;SDS011;47553;52.428;13.382;2022-10-17T07:43:39;20.00;;;5.70;;
61644;SDS011;47553;52.428;13.382;2022-10-17T07:45:42;10.15;;;3.97;;
61644;SDS011;47553;52.428;13.382;2022-10-17T07:47:44;10.07;;;3.70;;
61644;SDS011;47553;52.428;13.382;2022-10-17T07:49:46;7.45;;;3.67;;
61644;SDS011;47553;52.428;13.382;2022-10-17T07:51:47;8.95;;;4.18;;
61644;SDS011;47553;52.428;13.382;2022-10-17T07:53:48;11.10;;;4.72;;
61644;SDS011;47553;52.428;13.382;2022-10-17T07:55:50;8.98;;;3.60;;
61644;SDS011;47553;52.428;13.382;2022-10-17T07:57:51;7.47;;;3.85;;
61644;SDS011;47553;52.428;13.382;2022-10-17T07:59:53;7.38;;;3.75;;
61644;SDS011;47553;52.428;13.382;2022-10-17T08:01:56;8.98;;;4.25;;
61644;SDS011;47553;52.428;13.382;2022-10-17T08:03:58;7.70;;;3.83;;
61644;SDS011;47553;52.428;13.382;2022-10-17T08:06:00;10.93;;;4.10;;
61644;SDS011;47553;52.428;13.382;2022-10-17T08:08:02;6.93;;;3.50;;
61644;SDS011;47553;52.428;13.382;2022-10-17T08:10:04;10.07;;;3.47;;
61644;SDS011;47553;52.428;13.382;2022-10-17T08:12:06;7.72;;;3.65;;
61644;SDS011;47553;52.428;13.382;2022-10-17T08:14:08;7.88;;;3.70;;
61644;SDS011;47553;52.428;13.382;2022-10-17T08:16:11;13.60;;;4.50;;
61644;SDS011;47553;52.428;13.382;2022-10-17T08:18:14;9.18;;;3.65;;
61644;SDS011;47553;52.428;13.382;2022-10-17T08:20:16;9.50;;;4.20;;
61644;SDS011;47553;52.428;13.382;2022-10-17T08:22:18;10.63;;;3.78;;
61644;SDS011;47553;52.428;13.382;2022-10-17T08:24:20;10.30;;;3.40;;
61644;SDS011;47553;52.428;13.382;2022-10-17T08:26:21;11.27;;;3.88;;
61644;SDS011;47553;52.428;13.382;2022-10-17T08:28:23;7.18;;;3.00;;
61644;SDS011;47553;52.428;13.382;2022-10-17T08:30:24;9.05;;;3.40;;
61644;SDS011;47553;52.428;13.382;2022-10-17T08:32:26;10.90;;;3.65;;
61644;SDS011;47553;52.428;13.382;2022-10-17T08:34:31;11.23;;;3.60;;
61644;SDS011;47553;52.428;13.382;2022-10-17T08:36:32;12.73;;;3.90;;
61644;SDS011;47553;52.428;13.382;2022-10-17T08:38:34;9.52;;;4.00;;
61644;SDS011;47553;52.428;13.382;2022-10-17T08:40:38;32.60;;;5.10;;
61644;SDS011;47553;52.428;13.382;2022-10-17T08:45:08;6.25;;;3.03;;
61644;SDS011;47553;52.428;13.382;2022-10-17T08:47:18;8.40;;;3.45;;
61644;SDS011;47553;52.428;13.382;2022-10-17T08:49:25;8.68;;;3.60;;
61644;SDS011;47553;52.428;13.382;2022-10-17T08:51:39;6.30;;;3.40;;
61644;SDS011;47553;52.428;13.382;2022-10-17T08:53:48;6.50;;;2.97;;
61644;SDS011;47553;52.428;13.382;2022-10-17T08:55:54;9.13;;;3.03;;
61644;SDS011;47553;52.428;13.382;2022-10-17T08:57:56;7.90;;;3.25;;
61644;SDS011;47553;52.428;13.382;2022-10-17T08:59:58;6.82;;;3.10;;
61644;SDS011;47553;52.428;13.382;2022-10-17T09:02:00;7.65;;;3.17;;
61644;SDS011;47553;52.428;13.382;2022-10-17T09:04:14;9.15;;;3.17;;
61644;SDS011;47553;52.428;13.382;2022-10-17T09:06:34;9.20;;;3.17;;
61644;SDS011;47553;52.428;13.382;2022-10-17T09:08:41;9.40;;;2.72;;
61644;SDS011;47553;52.428;13.382;2022-10-17T09:10:53;7.20;;;3.08;;
61644;SDS011;47553;52.428;13.382;2022-10-17T09:13:02;7.95;;;3.45;;
61644;SDS011;47553;52.428;13.382;2022-10-17T09:15:15;7.57;;;3.47;;
61644;SDS011;47553;52.428;13.382;2022-10-17T09:17:43;7.40;;;3.17;;
61644;SDS011;47553;52.428;13.382;2022-10-17T09:19:53;8.35;;;3.45;;
61644;SDS011;47553;52.428;13.382;2022-10-17T09:22:00;7.93;;;3.35;;
61644;SDS011;47553;52.428;13.382;2022-10-17T09:24:10;8.55;;;3.88;;
61644;SDS011;47553;52.428;13.382;2022-10-17T09:26:17;8.40;;;3.40;;
61644;SDS011;47553;52.428;13.382;2022-10-17T09:28:20;8.07;;;3.28;;
61644;SDS011;47553;52.428;13.382;2022-10-17T09:30:31;10.50;;;3.35;;
61644;SDS011;47553;52.428;13.382;2022-10-17T09:32:45;13.35;;;3.75;;
61644;SDS011;47553;52.428;13.382;2022-10-17T09:34:47;7.55;;;3.00;;
61644;SDS011;47553;52.428;13.382;2022-10-17T09:36:49;7.97;;;3.00;;
61644;SDS011;47553;52.428;13.382;2022-10-17T09:38:52;7.07;;;2.85;;
61644;SDS011;47553;52.428;13.382;2022-10-17T09:40:57;6.95;;;2.67;;
61644;SDS011;47553;52.428;13.382;2022-10-17T09:43:02;8.82;;;3.13;;
61644;SDS011;47553;52.428;13.382;2022-10-17T09:45:13;7.55;;;2.72;;
61644;SDS011;47553;52.428;13.382;2022-10-17T09:47:21;8.60;;;3.13;;
61644;SDS011;47553;52.428;13.382;2022-10-17T09:49:27;8.48;;;3.20;;
61644;SDS011;47553;52.428;13.382;2022-10-17T09:51:32;8.25;;;3.38;;
61644;SDS011;47553;52.428;13.382;2022-10-17T09:53:35;7.10;;;3.03;;
61644;SDS011;47553;52.428;13.382;2022-10-17T09:55:39;7.15;;;3.00;;
61644;SDS011;47553;52.428;13.382;2022-10-17T09:57:56;7.13;;;2.60;;
61644;SDS011;47553;52.428;13.382;2022-10-17T10:00:00;7.18;;;3.17;;
61644;SDS011;47553;52.428;13.382;2022-10-17T10:02:06;8.13;;;3.28;;
61644;SDS011;47553;52.428;13.382;2022-10-17T10:04:10;8.65;;;3.30;;
61644;SDS011;47553;52.428;13.382;2022-10-17T10:06:14;9.13;;;3.15;;
61644;SDS011;47553;52.428;13.382;2022-10-17T10:08:17;9.98;;;3.75;;
61644;SDS011;47553;52.428;13.382;2022-10-17T10:10:26;12.18;;;4.20;;
61644;SDS011;47553;52.428;13.382;2022-10-17T10:12:30;11.38;;;4.03;;
61644;SDS011;47553;52.428;13.382;2022-10-17T10:14:36;7.38;;;3.20;;
61644;SDS011;47553;52.428;13.382;2022-10-17T10:16:40;8.73;;;4.10;;
61644;SDS011;47553;52.428;13.382;2022-10-17T10:18:43;6.60;;;3.10;;
61644;SDS011;47553;52.428;13.382;2022-10-17T10:20:51;8.38;;;3.70;;
61644;SDS011;47553;52.428;13.382;2022-10-17T10:23:12;6.47;;;3.53;;
61644;SDS011;47553;52.428;13.382;2022-10-17T10:25:16;8.68;;;3.03;;
61644;SDS011;47553;52.428;13.382;2022-10-17T10:27:18;6.35;;;2.85;;
61644;SDS011;47553;52.428;13.382;2022-10-17T10:29:26;10.25;;;3.78;;
61644;SDS011;47553;52.428;13.382;2022-10-17T10:31:33;5.93;;;3.10;;
61644;SDS011;47553;52.428;13.382;2022-10-17T10:33:40;10.57;;;3.83;;
61644;SDS011;47553;52.428;13.382;2022-10-17T10:35:53;6.80;;;3.08;;
61644;SDS011;47553;52.428;13.382;2022-10-17T10:37:57;7.47;;;3.38;;
61644;SDS011;47553;52.428;13.382;2022-10-17T10:40:01;7.28;;;3.08;;
61644;SDS011;47553;52.428;13.382;2022-10-17T10:42:05;9.10;;;3.38;;
61644;SDS011;47553;52.428;13.382;2022-10-17T10:44:17;7.03;;;3.33;;
61644;SDS011;47553;52.428;13.382;2022-10-17T10:46:24;9.02;;;3.10;;
61644;SDS011;47553;52.428;13.382;2022-10-17T10:48:31;11.13;;;3.40;;
61644;SDS011;47553;52.428;13.382;2022-10-17T10:50:35;8.07;;;3.28;;
61644;SDS011;47553;52.428;13.382;2022-10-17T10:52:46;8.65;;;3.70;;
61644;SDS011;47553;52.428;13.382;2022-10-17T10:54:55;8.20;;;3.13;;
61644;SDS011;47553;52.428;13.382;2022-10-17T10:57:04;7.40;;;2.90;;
61644;SDS011;47553;52.428;13.382;2022-10-17T10:59:12;7.30;;;3.00;;
61644;SDS011;47553;52.428;13.382;2022-10-17T11:01:19;8.07;;;3.20;;
61644;SDS011;47553;52.428;13.382;2022-10-17T11:03:28;7.22;;;2.97;;
61644;SDS011;47553;52.428;13.382;2022-10-17T11:05:39;4.95;;;2.25;;
61644;SDS011;47553;52.428;13.382;2022-10-17T11:07:45;7.57;;;2.75;;
61644;SDS011;47553;52.428;13.382;2022-10-17T11:09:53;5.82;;;2.80;;
61644;SDS011;47553;52.428;13.382;2022-10-17T11:12:01;12.35;;;3.38;;
61644;SDS011;47553;52.428;13.382;2022-10-17T11:14:12;5.50;;;2.67;;
61644;SDS011;47553;52.428;13.382;2022-10-17T11:16:21;5.93;;;2.67;;
61644;SDS011;47553;52.428;13.382;2022-10-17T11:18:32;6.22;;;2.97;;
61644;SDS011;47553;52.428;13.382;2022-10-17T11:20:42;6.55;;;3.00;;
61644;SDS011;47553;52.428;13.382;2022-10-17T11:22:51;6.65;;;2.97;;
61644;SDS011;47553;52.428;13.382;2022-10-17T11:24:57;6.90;;;2.40;;
61644;SDS011;47553;52.428;13.382;2022-10-17T11:27:02;6.90;;;3.28;;
61644;SDS011;47553;52.428;13.382;2022-10-17T11:29:05;6.90;;;3.05;;
61644;SDS011;47553;52.428;13.382;2022-10-17T11:31:08;8.15;;;2.72;;
61644;SDS011;47553;52.428;13.382;2022-10-17T11:33:14;6.80;;;3.05;;
61644;SDS011;47553;52.428;13.382;2022-10-17T11:35:22;7.55;;;3.00;;
61644;SDS011;47553;52.428;13.382;2022-10-17T11:37:27;8.90;;;2.80;;
61644;SDS011;47553;52.428;13.382;2022-10-17T11:39:34;6.00;;;2.60;;
61644;SDS011;47553;52.428;13.382;2022-10-17T11:41:42;6.25;;;2.70;;
61644;SDS011;47553;52.428;13.382;2022-10-17T11:43:50;8.68;;;2.63;;
61644;SDS011;47553;52.428;13.382;2022-10-17T11:45:55;5.65;;;2.22;;
61644;SDS011;47553;52.428;13.382;2022-10-17T11:48:01;7.10;;;2.58;;
61644;SDS011;47553;52.428;13.382;2022-10-17T11:50:10;5.55;;;2.42;;
61644;SDS011;47553;52.428;13.382;2022-10-17T11:52:41;7.20;;;2.75;;
61644;SDS011;47553;52.428;13.382;2022-10-17T11:54:57;6.95;;;2.70;;
61644;SDS011;47553;52.428;13.382;2022-10-17T11:57:06;6.22;;;2.70;;
61644;SDS011;47553;52.428;13.382;2022-10-17T11:59:23;6.10;;;2.70;;
61644;SDS011;47553;52.428;13.382;2022-10-17T12:01:41;5.75;;;2.42;;
61644;SDS011;47553;52.428;13.382;2022-10-17T12:03:50;6.38;;;2.67;;
61644;SDS011;47553;52.428;13.382;2022-10-17T12:06:03;6.93;;;2.88;;
61644;SDS011;47553;52.428;13.382;2022-10-17T12:08:16;10.48;;;3.30;;
61644;SDS011;47553;52.428;13.382;2022-10-17T12:10:27;6.30;;;2.90;;
61644;SDS011;47553;52.428;13.382;2022-10-17T12:12:35;5.95;;;3.22;;
61644;SDS011;47553;52.428;13.382;2022-10-17T12:14:37;7.35;;;3.10;;
61644;SDS011;47553;52.428;13.382;2022-10-17T12:16:43;5.63;;;2.72;;
61644;SDS011;47553;52.428;13.382;2022-10-17T12:18:45;7.70;;;3.25;;
61644;SDS011;47553;52.428;13.382;2022-10-17T12:20:53;7.72;;;2.97;;
61644;SDS011;47553;52.428;13.382;2022-10-17T12:22:58;7.07;;;2.85;;
61644;SDS011;47553;52.428;13.382;2022-10-17T12:25:14;7.10;;;3.08;;
61644;SDS011;47553;52.428;13.382;2022-10-17T12:29:42;7.82;;;3.10;;